Terminal Aerodrome Forecast
Issued by NWS Tampa Bay Area, FL

Home | Current Version | Previous Version | Text Only | Print | Product List | Glossary On
Versions: 1 2 3 4 5 6 7 8 9 10 11 12 13 14 15 16 17 18 19 20 21 22 23 24 25 26 27
000
FTUS42 KTBW 220200 AAA
TAFTPA
TAF AMD
KTPA 220247Z 2203/2224 VRB03KT 6SM SHRA FEW020 OVC060
     FM220600 15005KT 5SM SHRA BKN020 OVC070
     FM221400 17008KT P6SM VCSH SCT025 BKN040
     FM221800 18008KT P6SM SCT025 BKN090=

USA.gov is the U.S. government's official web portal to all federal, state and local government web resources and services.